Time;durP1;ratioP1;P1;durP2;ratioP2;P2;SDS_P1;SDS_P2;PMS_P1;PMS_P2;Temp;Humidity;BMP_temperature;BMP_pressure;BME280_temperature;BME280_humidity;BME280_pressure;Samples;Min_cycle;Max_cycle;Signal;HPM_P1;HPM_P2
2023/08/10 00:01:56;;;;;;;2.30;1.15;;;16.40;99.90;;;;;;5075766;28;20066;-43
2023/08/10 00:04:21;;;;;;;2.53;1.35;;;16.40;99.90;;;;;;5086482;28;20038;-42
2023/08/10 00:06:47;;;;;;;1.90;1.10;;;16.40;99.90;;;;;;5075624;28;20024;-43
2023/08/10 00:09:13;;;;;;;1.52;1.02;;;16.40;99.90;;;;;;5086706;28;20024;-42
2023/08/10 00:11:39;;;;;;;1.13;0.90;;;16.40;99.90;;;;;;5074714;28;20017;-43
2023/08/10 00:14:14;;;;;;;2.47;1.50;;;16.40;99.90;;;;;;5087102;28;20028;-43
2023/08/10 00:16:39;;;;;;;2.20;1.23;;;16.40;99.90;;;;;;5074171;28;20100;-43
2023/08/10 00:19:05;;;;;;;1.48;1.00;;;16.40;99.90;;;;;;5086968;28;20110;-43
2023/08/10 00:21:30;;;;;;;1.95;0.90;;;16.40;99.90;;;;;;5077166;28;20008;-43
2023/08/10 00:23:56;;;;;;;2.42;1.05;;;16.40;99.90;;;;;;5085076;28;20109;-42
2023/08/10 00:26:26;;;;;;;1.80;0.85;;;16.40;99.90;;;;;;5078759;28;20028;-43
2023/08/10 00:28:51;;;;;;;5.25;1.10;;;16.40;99.90;;;;;;5084078;28;20817;-42
2023/08/10 00:31:19;;;;;;;4.40;1.65;;;16.40;99.90;;;;;;5080287;28;20029;-43
2023/08/10 00:33:45;;;;;;;2.70;1.05;;;16.40;99.90;;;;;;5080917;28;20032;-43
2023/08/10 00:36:11;;;;;;;2.45;1.10;;;16.40;99.90;;;;;;5082380;28;20039;-43
2023/08/10 00:38:49;;;;;;;1.98;1.05;;;16.40;99.90;;;;;;5078995;28;20056;-43
2023/08/10 00:41:21;;;;;;;1.65;1.10;;;16.40;99.90;;;;;;5083589;28;20020;-42
2023/08/10 00:43:46;;;;;;;2.35;1.00;;;16.50;99.90;;;;;;5077030;28;20157;-43
2023/08/10 00:46:13;;;;;;;1.45;0.98;;;16.50;99.90;;;;;;5084513;28;20107;-43
2023/08/10 00:48:39;;;;;;;1.85;1.15;;;16.50;99.90;;;;;;5075139;28;20352;-43
2023/08/10 00:51:05;;;;;;;2.70;1.20;;;16.50;99.90;;;;;;5082832;28;20060;-43
2023/08/10 00:53:32;;;;;;;1.73;1.20;;;16.50;99.90;;;;;;5077451;28;20108;-43
2023/08/10 00:55:59;;;;;;;2.00;1.00;;;16.50;99.90;;;;;;5066723;28;20078;-43
2023/08/10 00:58:26;;;;;;;1.95;1.10;;;16.40;99.90;;;;;;5072951;28;20020;-43
2023/08/10 01:00:51;;;;;;;2.75;1.20;;;16.40;99.90;;;;;;5086426;28;20063;-43
2023/08/10 01:03:18;;;;;;;1.73;1.10;;;16.50;99.90;;;;;;5072823;28;20052;-43
2023/08/10 01:06:02;;;;;;;2.38;1.15;;;16.50;99.90;;;;;;5086028;28;20114;-43
2023/08/10 01:08:41;;;;;;;1.50;1.40;;;16.50;99.90;;;;;;5073615;28;20034;-43
2023/08/10 01:11:26;;;;;;;1.88;1.45;;;16.50;99.90;;;;;;5085457;28;20111;-43
2023/08/10 01:14:25;;;;;;;4.07;1.40;;;16.50;99.90;;;;;;5073464;28;20035;-43
2023/08/10 01:16:53;;;;;;;2.33;1.50;;;16.50;99.90;;;;;;5084873;28;20024;-42
2023/08/10 01:19:39;;;;;;;4.45;2.05;;;16.50;99.90;;;;;;5073577;28;20012;-43
2023/08/10 01:22:23;;;;;;;1.80;1.08;;;16.50;99.90;;;;;;5083764;28;20039;-43
2023/08/10 01:25:06;;;;;;;1.73;1.30;;;16.50;99.90;;;;;;5074561;28;20020;-43
2023/08/10 01:27:33;;;;;;;2.30;1.20;;;16.40;99.90;;;;;;5083980;28;20039;-43
2023/08/10 01:30:00;;;;;;;3.53;1.40;;;16.40;99.90;;;;;;5073063;28;20081;-43
2023/08/10 01:32:29;;;;;;;3.40;1.58;;;16.40;99.90;;;;;;5083609;28;20036;-43
2023/08/10 01:34:56;;;;;;;4.25;1.98;;;16.40;99.90;;;;;;5074221;28;20422;-43
2023/08/10 01:37:22;;;;;;;3.15;1.40;;;16.40;99.90;;;;;;5085377;28;20028;-43
2023/08/10 01:39:48;;;;;;;2.50;1.60;;;16.40;99.90;;;;;;5072571;28;20020;-43
2023/08/10 01:42:14;;;;;;;2.00;1.48;;;16.40;99.90;;;;;;5085672;28;20737;-43
2023/08/10 01:44:42;;;;;;;2.67;1.40;;;16.40;99.90;;;;;;5072737;28;20037;-43
2023/08/10 01:47:17;;;;;;;1.90;1.23;;;16.40;99.90;;;;;;5084175;28;20024;-43
2023/08/10 01:49:47;;;;;;;3.40;1.67;;;16.30;99.90;;;;;;5072734;28;20559;-43
2023/08/10 01:52:15;;;;;;;2.35;1.70;;;16.30;99.90;;;;;;5071665;28;20094;-43
2023/08/10 01:54:41;;;;;;;2.13;1.27;;;16.30;99.90;;;;;;5075422;28;20032;-42
2023/08/10 01:57:06;;;;;;;1.52;1.30;;;16.30;99.90;;;;;;5066107;28;20368;-43
2023/08/10 01:59:32;;;;;;;2.83;1.48;;;16.30;99.90;;;;;;5073581;28;20085;-43
2023/08/10 02:01:58;;;;;;;2.30;1.38;;;16.30;99.90;;;;;;5068444;28;20094;-43
2023/08/10 02:04:24;;;;;;;2.85;1.40;;;16.30;99.90;;;;;;5071452;28;20062;-43
2023/08/10 02:06:49;;;;;;;2.70;1.80;;;16.30;99.90;;;;;;5072009;28;20479;-43
2023/08/10 02:09:15;;;;;;;2.30;1.58;;;16.20;99.90;;;;;;5066948;28;20032;-43
2023/08/10 02:11:40;;;;;;;2.22;1.58;;;16.20;99.90;;;;;;5074217;28;20478;-43
2023/08/10 02:14:06;;;;;;;2.38;1.50;;;16.20;99.90;;;;;;5065558;28;20101;-43
2023/08/10 02:16:32;;;;;;;4.15;1.70;;;16.20;99.90;;;;;;5075516;28;20028;-42
2023/08/10 02:18:57;;;;;;;2.45;1.48;;;16.10;99.90;;;;;;5065794;28;20024;-43
2023/08/10 02:21:26;;;;;;;2.58;1.40;;;16.10;99.90;;;;;;5075975;28;20492;-43
2023/08/10 02:23:52;;;;;;;1.67;1.30;;;16.10;99.90;;;;;;5063909;28;20035;-43
2023/08/10 02:26:18;;;;;;;3.63;1.63;;;16.10;99.90;;;;;;5076588;28;20024;-43
2023/08/10 02:28:44;;;;;;;2.38;1.50;;;16.10;99.90;;;;;;5063995;28;20038;-43
2023/08/10 02:31:09;;;;;;;1.98;1.45;;;16.10;99.90;;;;;;5076246;28;20024;-44
2023/08/10 02:33:35;;;;;;;2.05;1.38;;;16.10;99.90;;;;;;5064692;28;20040;-43
2023/08/10 02:36:00;;;;;;;1.48;1.38;;;16.00;99.90;;;;;;5073866;28;20046;-42
2023/08/10 02:38:26;;;;;;;3.22;1.60;;;16.00;99.90;;;;;;5066326;28;20110;-44
2023/08/10 02:40:51;;;;;;;2.65;1.65;;;16.00;99.90;;;;;;5072471;28;20834;-43
2023/08/10 02:43:18;;;;;;;1.20;1.10;;;16.00;99.90;;;;;;5068160;28;20558;-44
2023/08/10 02:45:43;;;;;;;2.75;1.80;;;15.90;99.90;;;;;;5070123;28;20028;-43
2023/08/10 02:48:09;;;;;;;2.28;1.40;;;15.90;99.90;;;;;;5070813;28;20024;-43
2023/08/10 02:50:34;;;;;;;1.75;1.33;;;15.80;99.90;;;;;;5066620;28;20080;-43
2023/08/10 02:53:03;;;;;;;3.08;1.73;;;15.80;99.90;;;;;;5065429;28;20017;-43
2023/08/10 02:55:28;;;;;;;3.33;1.45;;;15.80;99.90;;;;;;5067692;28;20119;-43
2023/08/10 02:57:54;;;;;;;1.50;1.40;;;15.90;99.90;;;;;;5072738;28;20638;-43
2023/08/10 03:00:20;;;;;;;2.10;1.52;;;15.90;99.90;;;;;;5082139;28;20032;-44
2023/08/10 03:02:50;;;;;;;2.22;1.15;;;15.90;99.90;;;;;;5073019;28;20028;-43
2023/08/10 03:05:20;;;;;;;2.17;1.42;;;15.90;99.90;;;;;;5083303;28;20032;-44
2023/08/10 03:07:46;;;;;;;3.00;1.20;;;16.00;99.90;;;;;;5071859;28;20127;-43
2023/08/10 03:10:11;;;;;;;1.83;1.25;;;16.00;99.90;;;;;;5083880;28;20110;-43
2023/08/10 03:12:38;;;;;;;2.35;1.25;;;16.00;99.90;;;;;;5070755;28;20028;-43
2023/08/10 03:15:08;;;;;;;2.72;1.05;;;16.00;99.90;;;;;;5083970;28;20083;-44
2023/08/10 03:17:34;;;;;;;2.97;1.40;;;16.00;99.90;;;;;;5071764;28;20079;-44
2023/08/10 03:19:59;;;;;;;1.58;1.30;;;16.00;99.90;;;;;;5082857;28;20555;-43
2023/08/10 03:22:27;;;;;;;2.03;1.30;;;16.10;99.90;;;;;;5074569;28;20025;-43
2023/08/10 03:24:53;;;;;;;1.63;1.10;;;16.10;99.90;;;;;;5080959;28;20589;-43
2023/08/10 03:27:19;;;;;;;1.88;1.30;;;16.10;99.90;;;;;;5076008;28;20009;-43
2023/08/10 03:29:44;;;;;;;3.08;1.23;;;16.10;99.90;;;;;;5079485;28;20064;-43
2023/08/10 03:32:18;;;;;;;3.05;1.20;;;16.10;99.90;;;;;;5078446;28;20320;-43
2023/08/10 03:34:44;;;;;;;2.55;1.55;;;16.10;99.90;;;;;;5077275;28;20032;-43
2023/08/10 03:37:10;;;;;;;2.58;1.40;;;16.10;99.90;;;;;;5079713;28;20035;-43
2023/08/10 03:39:35;;;;;;;2.20;1.20;;;16.10;99.90;;;;;;5074203;28;20036;-46
2023/08/10 03:42:01;;;;;;;1.30;1.05;;;16.10;99.90;;;;;;5082272;28;20468;-43
2023/08/10 03:44:27;;;;;;;2.08;1.15;;;16.10;99.90;;;;;;5072849;28;20020;-43
2023/08/10 03:46:53;;;;;;;1.88;1.30;;;16.00;99.90;;;;;;5082472;28;20024;-43
2023/08/10 03:49:19;;;;;;;2.17;1.02;;;16.00;99.90;;;;;;5071811;28;20787;-41
2023/08/10 03:51:45;;;;;;;2.50;1.20;;;16.00;99.90;;;;;;5077412;28;20024;-43
2023/08/10 03:54:11;;;;;;;2.85;1.10;;;16.00;99.90;;;;;;5077619;28;20742;-43
2023/08/10 03:56:37;;;;;;;3.00;1.27;;;16.00;99.90;;;;;;5067604;28;20029;-43
2023/08/10 03:59:15;;;;;;;2.20;1.17;;;15.90;99.90;;;;;;5079662;28;20023;-43
2023/08/10 04:01:43;;;;;;;1.42;1.25;;;15.90;99.90;;;;;;5066100;28;20519;-43
2023/08/10 04:04:09;;;;;;;2.13;1.23;;;15.90;99.90;;;;;;5078963;28;20020;-44
2023/08/10 04:06:35;;;;;;;4.47;1.50;;;15.90;99.90;;;;;;5067774;28;20074;-43
2023/08/10 04:09:00;;;;;;;3.38;1.33;;;15.90;99.90;;;;;;5075766;28;20019;-44
2023/08/10 04:11:26;;;;;;;1.67;1.30;;;15.90;99.90;;;;;;5069609;28;20045;-43
2023/08/10 04:13:51;;;;;;;1.92;1.42;;;15.90;99.90;;;;;;5074068;28;20020;-44
2023/08/10 04:16:17;;;;;;;3.28;1.55;;;15.90;99.90;;;;;;5071147;28;20032;-44
2023/08/10 04:18:43;;;;;;;1.90;1.48;;;15.90;99.90;;;;;;5071595;28;20075;-43
2023/08/10 04:21:08;;;;;;;1.73;1.30;;;15.90;99.90;;;;;;5074332;28;20047;-44
2023/08/10 04:23:35;;;;;;;3.28;1.63;;;15.90;99.90;;;;;;5068680;28;20844;-42
2023/08/10 04:26:00;;;;;;;3.05;1.52;;;15.80;99.90;;;;;;5077002;28;20353;-43
2023/08/10 04:28:26;;;;;;;2.17;1.50;;;15.80;99.90;;;;;;5067418;28;20545;-43
2023/08/10 04:30:52;;;;;;;1.75;1.50;;;15.80;99.90;;;;;;5077092;28;20037;-42
2023/08/10 04:33:20;;;;;;;3.58;1.70;;;15.80;99.90;;;;;;5066915;28;20027;-43
2023/08/10 04:35:46;;;;;;;2.67;1.50;;;15.90;99.90;;;;;;5077876;28;20123;-42
2023/08/10 04:38:12;;;;;;;2.05;1.60;;;15.80;99.90;;;;;;5065509;28;20506;-43
2023/08/10 04:40:37;;;;;;;5.07;1.85;;;15.80;99.90;;;;;;5079076;28;20032;-42
2023/08/10 04:43:03;;;;;;;3.65;2.10;;;15.80;99.90;;;;;;5065969;28;20063;-42
2023/08/10 04:45:29;;;;;;;3.08;2.30;;;15.90;99.90;;;;;;5078577;28;20028;-42
2023/08/10 04:47:55;;;;;;;2.50;2.00;;;15.80;99.90;;;;;;5066999;28;20104;-42
2023/08/10 04:50:20;;;;;;;3.08;2.03;;;15.80;99.90;;;;;;5074613;28;20712;-42
2023/08/10 04:52:49;;;;;;;4.20;2.28;;;15.80;99.90;;;;;;5083991;28;20032;-43
2023/08/10 04:55:15;;;;;;;4.13;2.20;;;15.90;99.90;;;;;;5078548;28;20070;-42
2023/08/10 04:57:41;;;;;;;5.10;2.22;;;15.90;99.90;;;;;;5081278;28;20028;-42
2023/08/10 05:00:13;;;;;;;2.95;1.98;;;15.90;99.90;;;;;;5081054;28;20419;-42
2023/08/10 05:02:39;;;;;;;2.78;2.17;;;15.90;99.90;;;;;;5079490;28;20031;-42
2023/08/10 05:05:06;;;;;;;2.65;1.98;;;15.90;99.90;;;;;;5082000;28;20020;-42
2023/08/10 05:07:33;;;;;;;4.53;2.15;;;15.90;99.90;;;;;;5077105;28;20756;-42
2023/08/10 05:09:59;;;;;;;2.28;1.90;;;15.90;99.90;;;;;;5084835;28;20463;-44
2023/08/10 05:12:25;;;;;;;2.10;1.90;;;16.00;99.90;;;;;;5074698;28;20024;-43
2023/08/10 05:14:51;;;;;;;3.67;2.58;;;16.00;99.90;;;;;;5084293;28;20711;-42
2023/08/10 05:17:19;;;;;;;3.33;1.90;;;16.00;99.90;;;;;;5074019;28;20052;-43
2023/08/10 05:19:45;;;;;;;2.85;2.20;;;16.10;99.90;;;;;;5085678;28;20024;-43
2023/08/10 05:22:10;;;;;;;3.13;2.17;;;16.10;99.90;;;;;;5072653;28;20016;-43
2023/08/10 05:24:36;;;;;;;4.07;2.50;;;16.10;99.90;;;;;;5085331;28;20067;-43
2023/08/10 05:27:02;;;;;;;4.10;2.47;;;16.10;99.90;;;;;;5072264;28;20194;-43
2023/08/10 05:29:28;;;;;;;2.65;2.45;;;16.10;99.90;;;;;;5085716;28;20024;-43
2023/08/10 05:31:55;;;;;;;2.92;2.60;;;16.10;99.90;;;;;;5073413;28;20025;-42
2023/08/10 05:34:20;;;;;;;4.03;2.40;;;16.10;99.90;;;;;;5083955;28;20043;-43
2023/08/10 05:36:46;;;;;;;3.10;2.50;;;16.10;99.90;;;;;;5076838;28;20020;-42
2023/08/10 05:39:11;;;;;;;4.85;2.42;;;16.10;99.90;;;;;;5069663;28;20380;-43
2023/08/10 05:41:37;;;;;;;2.65;2.20;;;16.10;99.90;;;;;;5071455;28;20016;-43
2023/08/10 05:44:03;;;;;;;4.70;2.65;;;16.10;99.90;;;;;;5071503;28;20028;-43
2023/08/10 05:46:28;;;;;;;4.07;2.80;;;16.10;99.90;;;;;;5066311;28;20035;-43
2023/08/10 05:48:57;;;;;;;3.10;2.80;;;16.20;99.90;;;;;;5072870;28;20048;-43
2023/08/10 05:51:23;;;;;;;5.50;3.17;;;16.20;99.90;;;;;;5068436;28;20374;-43
2023/08/10 05:53:48;;;;;;;3.70;3.38;;;16.30;99.90;;;;;;5072252;28;20535;-43
2023/08/10 05:56:14;;;;;;;6.38;3.33;;;16.30;99.90;;;;;;5065250;28;20669;-43
2023/08/10 05:58:40;;;;;;;4.35;3.47;;;16.30;99.90;;;;;;5075475;28;20036;-43
2023/08/10 06:01:05;;;;;;;4.25;3.20;;;16.30;99.90;;;;;;5063386;28;20511;-43
2023/08/10 06:03:32;;;;;;;4.53;3.03;;;16.20;99.90;;;;;;5076820;28;20687;-43
2023/08/10 06:06:00;;;;;;;3.67;2.90;;;16.30;99.90;;;;;;5064439;28;20066;-43
2023/08/10 06:08:26;;;;;;;3.40;2.85;;;16.20;99.90;;;;;;5075837;28;20111;-43
2023/08/10 06:10:51;;;;;;;3.58;3.22;;;16.30;99.90;;;;;;5064041;28;20469;-43
2023/08/10 06:13:20;;;;;;;4.65;2.97;;;16.30;99.90;;;;;;5074354;28;20466;-43
2023/08/10 06:15:48;;;;;;;3.92;2.80;;;16.30;99.90;;;;;;5063493;28;20506;-42
2023/08/10 06:18:14;;;;;;;5.47;3.25;;;16.30;99.90;;;;;;5072591;28;20028;-42
2023/08/10 06:20:40;;;;;;;4.60;3.15;;;16.30;99.90;;;;;;5067217;28;20050;-43
2023/08/10 06:23:06;;;;;;;5.00;2.60;;;16.30;99.90;;;;;;5069732;28;20127;-43
2023/08/10 06:25:33;;;;;;;4.53;2.80;;;16.30;99.90;;;;;;5069390;28;20051;-43
2023/08/10 06:27:59;;;;;;;3.25;2.95;;;16.30;99.90;;;;;;5066660;28;20020;-43
2023/08/10 06:30:25;;;;;;;3.03;2.72;;;16.30;99.90;;;;;;5083848;28;20050;-43
2023/08/10 06:32:51;;;;;;;3.90;3.00;;;16.30;99.90;;;;;;5082080;28;20012;-43
2023/08/10 06:35:19;;;;;;;4.10;3.15;;;16.40;99.90;;;;;;5072242;28;20609;-43
2023/08/10 06:37:49;;;;;;;3.20;2.90;;;16.40;99.90;;;;;;5083229;28;20847;-44
2023/08/10 06:40:15;;;;;;;4.63;2.90;;;16.40;99.90;;;;;;5072759;28;20385;-43
2023/08/10 06:42:44;;;;;;;3.88;3.13;;;16.40;99.90;;;;;;5082516;28;20471;-43
2023/08/10 06:45:10;;;;;;;4.32;2.88;;;16.50;99.90;;;;;;5075287;28;20013;-43
2023/08/10 06:47:37;;;;;;;4.50;2.90;;;16.50;99.90;;;;;;5065089;28;20039;-43
2023/08/10 06:50:04;;;;;;;2.47;2.28;;;16.50;99.90;;;;;;5075360;28;20518;-43
2023/08/10 06:52:33;;;;;;;3.38;2.60;;;16.50;99.90;;;;;;5075288;28;20476;-43
2023/08/10 06:54:59;;;;;;;4.78;2.67;;;16.60;99.90;;;;;;5070840;28;20040;-43
2023/08/10 06:57:27;;;;;;;3.15;2.42;;;16.60;99.90;;;;;;5083619;28;20016;-43
2023/08/10 06:59:53;;;;;;;3.45;2.65;;;16.70;99.90;;;;;;5071660;28;20105;-43
2023/08/10 07:02:18;;;;;;;4.18;3.00;;;16.70;99.90;;;;;;5064246;28;20114;-43
2023/08/10 07:04:45;;;;;;;2.97;2.70;;;16.70;99.90;;;;;;5072379;28;20042;-43
2023/08/10 07:07:12;;;;;;;5.30;2.78;;;16.70;99.90;;;;;;5066950;28;20504;-43
2023/08/10 07:09:37;;;;;;;2.63;2.40;;;16.80;99.90;;;;;;5070615;28;20035;-43
2023/08/10 07:12:06;;;;;;;3.58;2.50;;;16.80;99.90;;;;;;5069356;28;20021;-43
2023/08/10 07:14:32;;;;;;;2.90;2.30;;;16.80;99.90;;;;;;5068026;28;20179;-43
2023/08/10 07:16:57;;;;;;;3.92;2.30;;;16.90;99.90;;;;;;5071768;28;20531;-43
2023/08/10 07:19:23;;;;;;;4.50;2.97;;;16.90;99.90;;;;;;5065251;28;20077;-43
2023/08/10 07:21:48;;;;;;;4.03;2.20;;;16.90;99.90;;;;;;5074881;28;20635;-43
2023/08/10 07:24:14;;;;;;;3.78;2.40;;;17.00;99.90;;;;;;5063965;28;20039;-43
2023/08/10 07:26:40;;;;;;;2.80;2.47;;;17.00;99.90;;;;;;5074857;28;20097;-43
2023/08/10 07:29:05;;;;;;;3.97;2.45;;;17.10;99.90;;;;;;5067022;28;20024;-43
2023/08/10 07:31:34;;;;;;;4.90;2.97;;;17.10;99.90;;;;;;5075289;28;20023;-43
2023/08/10 07:34:00;;;;;;;4.50;2.40;;;17.20;99.90;;;;;;5087798;28;20032;-43
2023/08/10 07:36:26;;;;;;;4.25;2.75;;;17.20;99.90;;;;;;5075466;28;20067;-43
2023/08/10 07:38:55;;;;;;;4.63;2.50;;;17.20;99.90;;;;;;5087484;28;20058;-43
2023/08/10 07:41:21;;;;;;;2.80;2.08;;;17.30;99.90;;;;;;5074849;28;20024;-43
2023/08/10 07:43:47;;;;;;;2.53;2.03;;;17.30;99.90;;;;;;5088133;28;20020;-47
2023/08/10 07:46:12;;;;;;;2.85;2.55;;;17.40;99.90;;;;;;5076434;28;20078;-43
2023/08/10 07:48:38;;;;;;;2.47;1.80;;;17.40;99.90;;;;;;5084575;28;20020;-43
2023/08/10 07:51:04;;;;;;;4.15;2.15;;;17.40;99.90;;;;;;5079804;28;20029;-43
2023/08/10 07:53:29;;;;;;;2.95;2.08;;;17.50;99.90;;;;;;5085208;28;20016;-43
2023/08/10 07:55:55;;;;;;;2.42;2.10;;;17.50;99.90;;;;;;5082678;28;20038;-43
2023/08/10 07:58:30;;;;;;;3.15;2.00;;;17.60;99.90;;;;;;5078904;28;20107;-43
2023/08/10 08:00:56;;;;;;;2.35;1.88;;;17.60;99.90;;;;;;5083417;28;20036;-43
2023/08/10 08:03:28;;;;;;;3.33;1.60;;;17.70;99.90;;;;;;5076939;28;20383;-43
2023/08/10 08:06:00;;;;;;;2.40;1.58;;;17.70;99.90;;;;;;5085784;28;20026;-43
2023/08/10 08:08:28;;;;;;;2.10;1.75;;;17.70;99.90;;;;;;5076183;28;20111;-43
2023/08/10 08:10:54;;;;;;;1.42;1.30;;;17.80;99.90;;;;;;5082795;28;20036;-43
2023/08/10 08:13:20;;;;;;;1.95;1.60;;;17.80;99.90;;;;;;5076745;28;20052;-43
2023/08/10 08:15:48;;;;;;;2.25;1.48;;;17.90;99.90;;;;;;5067103;28;20036;-43
2023/08/10 08:18:42;;;;;;;1.63;1.20;;;17.90;99.90;;;;;;5077421;28;20020;-43
2023/08/10 08:21:20;;;;;;;1.48;1.38;;;18.00;99.90;;;;;;5066525;28;20812;-43
2023/08/10 08:23:47;;;;;;;1.60;1.45;;;18.10;99.90;;;;;;5078042;28;20060;-43
2023/08/10 08:26:17;;;;;;;1.85;1.58;;;18.10;99.90;;;;;;5066920;28;20040;-43
2023/08/10 08:28:44;;;;;;;1.13;1.02;;;18.10;99.90;;;;;;5076983;28;20111;-43
2023/08/10 08:31:10;;;;;;;2.55;1.40;;;18.20;99.90;;;;;;5065991;28;20111;-43
2023/08/10 08:33:36;;;;;;;1.15;1.05;;;18.30;99.90;;;;;;5073656;28;20110;-43
2023/08/10 08:36:02;;;;;;;1.52;1.20;;;18.30;99.90;;;;;;5084332;28;20353;-43
2023/08/10 08:38:32;;;;;;;1.98;1.00;;;18.30;99.90;;;;;;5072546;28;20024;-43
2023/08/10 08:41:00;;;;;;;0.63;0.63;;;18.40;99.90;;;;;;5086297;28;20035;-43
2023/08/10 08:43:26;;;;;;;0.75;0.70;;;18.50;99.90;;;;;;5073553;28;20040;-43
2023/08/10 08:45:52;;;;;;;3.30;1.00;;;18.50;99.90;;;;;;5085854;28;20050;-43
2023/08/10 08:48:18;;;;;;;1.15;0.93;;;18.60;99.90;;;;;;5075787;28;20545;-43
2023/08/10 08:50:48;;;;;;;1.20;1.10;;;18.60;99.90;;;;;;5082964;28;20069;-42
2023/08/10 08:53:13;;;;;;;1.15;0.90;;;18.70;99.90;;;;;;5076740;28;20066;-43
2023/08/10 08:55:42;;;;;;;1.67;1.00;;;18.80;99.90;;;;;;5070298;28;20567;-44
2023/08/10 08:58:08;;;;;;;1.45;1.10;;;18.90;99.90;;;;;;5071044;28;20416;-43
2023/08/10 09:00:34;;;;;;;1.52;1.10;;;19.10;99.90;;;;;;5072953;28;20028;-43
2023/08/10 09:03:00;;;;;;;1.35;1.02;;;19.40;99.90;;;;;;5067515;28;20203;-43
2023/08/10 09:05:26;;;;;;;1.70;0.98;;;19.70;99.90;;;;;;5075354;28;20063;-43
2023/08/10 09:07:52;;;;;;;1.10;1.00;;;19.80;99.90;;;;;;5067094;28;20022;-43
2023/08/10 09:10:22;;;;;;;1.40;1.00;;;19.90;99.90;;;;;;5075517;28;20097;-43
2023/08/10 09:12:48;;;;;;;1.27;0.80;;;20.00;99.90;;;;;;5067006;28;20043;-43
2023/08/10 09:15:18;;;;;;;1.25;1.15;;;20.10;99.90;;;;;;5076060;28;20033;-43
2023/08/10 09:17:54;;;;;;;1.40;0.77;;;20.00;99.90;;;;;;5064985;28;20038;-43
2023/08/10 09:20:27;;;;;;;1.13;0.80;;;20.10;99.90;;;;;;5076529;28;20052;-43
2023/08/10 09:22:56;;;;;;;1.80;0.80;;;20.20;99.90;;;;;;5065498;28;20036;-43
2023/08/10 09:25:33;;;;;;;1.65;1.15;;;20.30;99.90;;;;;;5071750;28;20039;-43
2023/08/10 09:28:02;;;;;;;1.33;1.20;;;20.50;99.90;;;;;;5085169;28;20772;-41
2023/08/10 09:30:33;;;;;;;2.20;0.93;;;20.70;99.90;;;;;;5073142;28;20020;-41
2023/08/10 09:33:05;;;;;;;0.80;0.80;;;20.90;99.90;;;;;;5085104;28;20036;-41
2023/08/10 09:35:31;;;;;;;0.93;0.75;;;21.00;99.90;;;;;;5072768;28;20142;-41
2023/08/10 09:38:04;;;;;;;1.40;1.15;;;21.10;99.90;;;;;;5085268;28;20016;-43
2023/08/10 09:40:30;;;;;;;1.17;1.00;;;21.10;99.90;;;;;;5073039;28;20024;-42
2023/08/10 09:42:56;;;;;;;1.40;1.20;;;21.20;99.90;;;;;;5085759;28;20361;-42
2023/08/10 09:45:22;;;;;;;1.42;1.17;;;21.20;99.90;;;;;;5072640;28;20089;-42
2023/08/10 09:47:48;;;;;;;1.33;0.90;;;21.20;99.90;;;;;;5084421;28;20035;-43
2023/08/10 09:50:25;;;;;;;1.20;1.10;;;21.20;99.90;;;;;;5074693;28;20052;-43
2023/08/10 09:52:54;;;;;;;1.35;1.20;;;21.20;99.90;;;;;;5069574;28;20098;-42
2023/08/10 09:55:20;;;;;;;1.40;1.30;;;21.10;99.90;;;;;;5071824;28;20035;-42
2023/08/10 09:57:49;;;;;;;1.33;1.20;;;21.00;99.90;;;;;;5069573;28;20159;-43
2023/08/10 10:00:22;;;;;;;2.10;1.33;;;20.90;99.90;;;;;;5068943;28;20016;-42
2023/08/10 10:02:48;;;;;;;2.38;1.40;;;20.80;99.90;;;;;;5070632;28;20031;-43
2023/08/10 10:05:16;;;;;;;2.97;1.65;;;20.80;99.90;;;;;;5067986;28;20100;-43
2023/08/10 10:07:44;;;;;;;2.28;1.70;;;20.80;99.90;;;;;;5072017;28;20032;-44
2023/08/10 10:10:12;;;;;;;1.70;1.60;;;20.80;99.90;;;;;;5065895;28;20031;-45
2023/08/10 10:12:38;;;;;;;2.20;1.98;;;20.90;99.90;;;;;;5074669;28;20020;-43
2023/08/10 10:15:05;;;;;;;2.08;1.50;;;21.00;99.90;;;;;;5064107;28;20051;-43
2023/08/10 10:17:31;;;;;;;2.45;1.70;;;21.10;99.90;;;;;;5075520;28;20087;-43
2023/08/10 10:19:57;;;;;;;3.13;2.08;;;21.20;99.90;;;;;;5065446;28;20096;-43
2023/08/10 10:22:23;;;;;;;2.03;1.80;;;21.20;99.90;;;;;;5075597;28;20559;-42
2023/08/10 10:24:51;;;;;;;1.85;1.35;;;21.20;99.90;;;;;;5065044;28;20033;-43
2023/08/10 10:27:17;;;;;;;1.60;1.50;;;21.20;99.90;;;;;;5075982;28;20040;-43
2023/08/10 10:29:52;;;;;;;1.60;1.48;;;21.20;99.90;;;;;;5064330;28;20036;-43
2023/08/10 10:32:19;;;;;;;1.60;1.40;;;21.20;99.90;;;;;;5075845;28;20039;-43
2023/08/10 10:34:45;;;;;;;1.45;1.25;;;21.20;99.90;;;;;;5064128;28;20033;-43
2023/08/10 10:37:18;;;;;;;2.03;1.50;;;21.20;99.90;;;;;;5075646;28;20103;-42
2023/08/10 10:39:49;;;;;;;1.52;1.17;;;21.20;99.90;;;;;;5064956;28;20032;-44
2023/08/10 10:42:23;;;;;;;1.60;1.30;;;21.10;99.90;;;;;;5073720;28;20028;-43
2023/08/10 10:45:14;;;;;;;1.27;1.17;;;21.00;99.90;;;;;;5064664;28;20032;-44
2023/08/10 10:47:47;;;;;;;1.42;1.17;;;21.00;99.90;;;;;;5076519;28;20158;-44
2023/08/10 10:50:15;;;;;;;2.38;1.13;;;21.00;99.90;;;;;;5062393;28;20051;-44
2023/08/10 10:52:48;;;;;;;2.08;1.10;;;21.00;99.90;;;;;;5065599;28;20049;-42
2023/08/10 10:55:16;;;;;;;1.85;1.20;;;21.00;99.90;;;;;;5062839;28;20032;-43
2023/08/10 10:57:44;;;;;;;1.65;1.40;;;21.00;99.90;;;;;;5070248;28;20037;-42
2023/08/10 11:00:12;;;;;;;2.92;1.00;;;21.10;99.90;;;;;;5082002;28;20537;-43
2023/08/10 11:02:39;;;;;;;1.30;1.17;;;21.10;99.90;;;;;;5077125;28;20016;-42
2023/08/10 11:05:11;;;;;;;1.13;1.05;;;21.10;99.90;;;;;;5084114;28;20060;-42
2023/08/10 11:07:41;;;;;;;2.08;0.93;;;21.20;99.90;;;;;;5081338;28;20083;-42
2023/08/10 11:10:07;;;;;;;1.73;1.00;;;21.30;99.90;;;;;;5082419;28;20047;-43
2023/08/10 11:12:36;;;;;;;1.20;1.10;;;21.50;99.90;;;;;;5083657;28;20023;-42
2023/08/10 11:15:02;;;;;;;1.88;1.02;;;21.60;99.90;;;;;;5080568;28;20036;-43
2023/08/10 11:17:28;;;;;;;1.20;1.08;;;21.80;99.90;;;;;;5083996;28;20044;-42
2023/08/10 11:19:54;;;;;;;1.20;1.10;;;21.80;99.90;;;;;;5078821;28;20356;-43
2023/08/10 11:22:20;;;;;;;1.20;1.10;;;21.90;99.90;;;;;;5086264;28;20464;-43
2023/08/10 11:24:46;;;;;;;1.35;1.25;;;21.90;99.90;;;;;;5076211;28;20055;-43
2023/08/10 11:27:11;;;;;;;0.85;0.85;;;22.00;99.90;;;;;;5085882;28;20027;-43
2023/08/10 11:29:37;;;;;;;1.08;0.82;;;22.20;99.90;;;;;;5083678;28;20020;-43
2023/08/10 11:32:05;;;;;;;1.15;0.88;;;22.20;99.90;;;;;;5086661;28;20016;-43
2023/08/10 11:34:34;;;;;;;1.38;1.20;;;22.20;99.90;;;;;;5074800;28;20044;-43
2023/08/10 11:37:00;;;;;;;1.88;1.27;;;22.20;99.90;;;;;;5087472;28;20016;-43
2023/08/10 11:39:25;;;;;;;2.08;1.50;;;22.20;99.90;;;;;;5074199;28;20181;-42
2023/08/10 11:41:53;;;;;;;1.38;1.27;;;22.20;99.90;;;;;;5087769;28;20485;-43
2023/08/10 11:44:48;;;;;;;1.30;1.20;;;22.20;99.90;;;;;;5074822;28;20027;-43
2023/08/10 11:47:15;;;;;;;2.17;1.33;;;22.30;99.90;;;;;;5066462;28;20028;-43
2023/08/10 11:49:40;;;;;;;2.40;1.50;;;22.40;99.90;;;;;;5079610;28;20055;-43
2023/08/10 11:52:15;;;;;;;1.55;1.30;;;22.60;99.90;;;;;;5069990;28;20028;-43
2023/08/10 11:54:41;;;;;;;1.35;1.20;;;22.50;99.90;;;;;;5076043;28;20062;-43
2023/08/10 11:57:14;;;;;;;1.25;1.15;;;22.50;99.90;;;;;;5086423;28;20020;-43
2023/08/10 11:59:40;;;;;;;1.75;1.33;;;22.50;99.90;;;;;;5077175;28;20541;-43
2023/08/10 12:02:10;;;;;;;1.02;1.00;;;22.50;99.90;;;;;;5084220;28;20131;-43
2023/08/10 12:04:36;;;;;;;1.30;1.20;;;22.40;99.90;;;;;;5080329;28;20144;-43
2023/08/10 12:07:01;;;;;;;2.22;1.05;;;22.50;99.90;;;;;;5081464;28;20119;-43
2023/08/10 12:09:31;;;;;;;1.40;1.30;;;22.40;99.90;;;;;;5082374;28;20028;-43
2023/08/10 12:11:58;;;;;;;2.85;1.25;;;22.40;99.90;;;;;;5080142;28;20574;-43
2023/08/10 12:14:24;;;;;;;1.10;1.00;;;22.40;99.90;;;;;;5081522;28;20463;-43
2023/08/10 12:16:50;;;;;;;1.05;0.95;;;22.50;99.90;;;;;;5077521;28;20024;-43
2023/08/10 12:19:16;;;;;;;1.10;1.00;;;22.60;99.90;;;;;;5084769;28;20393;-44
2023/08/10 12:21:41;;;;;;;1.50;1.13;;;22.60;99.90;;;;;;5075281;28;20526;-43
2023/08/10 12:24:07;;;;;;;1.27;1.17;;;22.70;99.90;;;;;;5085198;28;20032;-43
2023/08/10 12:26:33;;;;;;;1.10;0.85;;;22.80;99.90;;;;;;5075014;28;20056;-43
2023/08/10 12:28:58;;;;;;;0.93;0.93;;;22.80;99.90;;;;;;5086344;28;20023;-43
2023/08/10 12:31:25;;;;;;;1.50;1.40;;;22.90;99.90;;;;;;5073304;28;20043;-43
2023/08/10 12:33:56;;;;;;;1.30;1.20;;;23.00;99.90;;;;;;5086319;28;20357;-43
2023/08/10 12:36:21;;;;;;;3.08;1.30;;;23.10;99.90;;;;;;5073395;28;20034;-43
2023/08/10 12:38:47;;;;;;;1.50;1.25;;;23.20;99.90;;;;;;5086479;28;20024;-43
2023/08/10 12:41:13;;;;;;;1.30;1.20;;;23.20;99.70;;;;;;5073604;28;20066;-43
2023/08/10 12:43:44;;;;;;;1.92;1.40;;;23.20;99.60;;;;;;5084987;28;20024;-43
2023/08/10 12:46:10;;;;;;;1.20;1.10;;;23.30;99.50;;;;;;5075714;28;20399;-43
2023/08/10 12:48:36;;;;;;;1.40;1.30;;;23.20;99.30;;;;;;5081933;28;20026;-44
2023/08/10 12:51:01;;;;;;;1.10;1.00;;;23.20;99.30;;;;;;5078571;28;20614;-43